Time;durP1;ratioP1;P1;durP2;ratioP2;P2;SDS_P1;SDS_P2;PMS_P1;PMS_P2;Temp;Humidity;BMP_temperature;BMP_pressure;BME280_temperature;BME280_humidity;BME280_pressure;Samples;Min_cycle;Max_cycle;Signal;HPM_P1;HPM_P2
2022/09/13 00:01:16;;;;;;;4.35;2.92;;;8.80;99.90;;;;;;8273149;28;20029;-81
2022/09/13 00:05:16;;;;;;;8.13;3.05;;;8.70;99.90;;;;;;8284223;28;20022;-82
2022/09/13 00:09:17;;;;;;;3.50;2.90;;;8.80;99.90;;;;;;8279899;28;20116;-81
2022/09/13 00:13:17;;;;;;;3.40;2.80;;;8.80;99.90;;;;;;8281359;28;20029;-82
2022/09/13 00:17:18;;;;;;;5.47;2.67;;;8.80;99.90;;;;;;8281694;28;20032;-81
2022/09/13 00:21:20;;;;;;;3.47;2.55;;;9.00;99.90;;;;;;8293684;28;20110;-81
2022/09/13 00:25:20;;;;;;;4.30;2.53;;;9.00;99.90;;;;;;8280057;28;20026;-82
2022/09/13 00:29:21;;;;;;;4.03;2.97;;;8.80;99.90;;;;;;8272603;28;20041;-82
2022/09/13 00:33:21;;;;;;;6.13;3.40;;;8.60;99.90;;;;;;8284537;28;20046;-80
2022/09/13 00:37:22;;;;;;;4.22;2.95;;;8.50;99.90;;;;;;8280893;28;20580;-81
2022/09/13 00:41:23;;;;;;;4.25;3.25;;;8.60;99.90;;;;;;8280906;28;20046;-81
2022/09/13 00:45:23;;;;;;;5.10;3.00;;;8.60;99.90;;;;;;8263240;28;20022;-82
2022/09/13 00:49:34;;;;;;;4.70;3.13;;;8.60;99.90;;;;;;8283334;28;20636;-81
2022/09/13 00:53:40;;;;;;;5.88;3.17;;;8.50;99.90;;;;;;8262872;28;20022;-80
2022/09/13 00:57:42;;;;;;;3.80;2.92;;;8.70;99.90;;;;;;8262408;28;20022;-82
2022/09/13 01:01:48;;;;;;;7.43;3.38;;;8.60;99.90;;;;;;8264490;28;20476;-81
2022/09/13 01:05:56;;;;;;;4.10;3.42;;;8.60;99.90;;;;;;8285151;28;20034;-81
2022/09/13 01:09:57;;;;;;;4.90;3.20;;;8.60;99.90;;;;;;8258249;28;20045;-81
2022/09/13 01:13:58;;;;;;;6.10;3.67;;;8.70;99.90;;;;;;8278471;28;20571;-81
2022/09/13 01:17:59;;;;;;;5.00;3.22;;;8.60;99.90;;;;;;8279548;28;20077;-81
2022/09/13 01:22:22;;;;;;;4.57;3.42;;;8.70;99.90;;;;;;8277793;28;20275;-81
2022/09/13 01:26:51;;;;;;;4.53;3.20;;;8.60;99.90;;;;;;8281393;28;20579;-81
2022/09/13 01:31:06;;;;;;;3.80;3.13;;;8.60;99.90;;;;;;8266701;28;20528;-81
2022/09/13 01:35:17;;;;;;;3.42;2.58;;;8.50;99.90;;;;;;8280222;28;20025;-81
2022/09/13 01:39:24;;;;;;;;;;;8.40;99.90;;;;;;8279234;28;20030;-81
2022/09/13 01:43:49;;;;;;;7.40;2.45;;;8.30;99.90;;;;;;8258617;28;19915;-81
2022/09/13 01:48:11;;;;;;;6.90;2.88;;;8.20;99.90;;;;;;8279782;28;20026;-81
2022/09/13 01:52:21;;;;;;;4.15;3.10;;;8.20;99.90;;;;;;8263959;28;20026;-81
2022/09/13 01:56:39;;;;;;;4.03;3.17;;;8.10;99.90;;;;;;8262584;28;20010;-80
2022/09/13 02:01:05;;;;;;;4.70;2.90;;;8.20;99.90;;;;;;8278017;28;20110;-81
2022/09/13 02:05:16;;;;;;;4.30;2.97;;;8.20;99.90;;;;;;8276497;28;20023;-80
2022/09/13 02:09:22;;;;;;;4.05;2.90;;;8.30;99.90;;;;;;8287263;28;20053;-81
2022/09/13 02:13:27;;;;;;;4.25;3.33;;;8.30;99.90;;;;;;8290095;28;20089;-81
2022/09/13 02:17:32;;;;;;;5.82;3.35;;;8.40;99.90;;;;;;8276890;28;20021;-81
2022/09/13 02:21:38;;;;;;;4.50;3.10;;;8.50;99.90;;;;;;8276027;28;20030;-80
2022/09/13 02:25:39;;;;;;;5.07;3.10;;;8.40;99.90;;;;;;8274102;28;20056;-81
2022/09/13 02:29:45;;;;;;;4.30;3.10;;;8.20;99.90;;;;;;8283795;28;20022;-81
2022/09/13 02:33:55;;;;;;;4.80;3.47;;;8.20;99.90;;;;;;8275684;28;20027;-80
2022/09/13 02:38:12;;;;;;;3.75;2.85;;;8.10;99.90;;;;;;8256726;28;20046;-80
2022/09/13 02:42:18;;;;;;;5.35;3.05;;;8.00;99.90;;;;;;8288604;28;20033;-80
2022/09/13 02:46:45;;;;;;;5.78;3.25;;;7.90;99.90;;;;;;8292690;28;20037;-81
2022/09/13 02:51:02;;;;;;;4.05;2.88;;;7.90;99.90;;;;;;8295109;28;20023;-80
2022/09/13 02:55:28;;;;;;;4.63;3.05;;;7.80;99.90;;;;;;8271850;28;20386;-81
2022/09/13 02:59:29;;;;;;;5.72;2.78;;;7.70;99.90;;;;;;8286170;28;20018;-81
2022/09/13 03:03:30;;;;;;;3.97;2.97;;;7.70;99.90;;;;;;8286182;28;20029;-81
2022/09/13 03:07:30;;;;;;;4.53;2.85;;;7.60;99.90;;;;;;8271389;28;20089;-81
2022/09/13 03:11:40;;;;;;;5.32;2.95;;;7.60;99.90;;;;;;8279844;28;20030;-81
2022/09/13 03:16:27;;;;;;;4.63;3.30;;;7.70;99.90;;;;;;8291945;28;20032;-80
2022/09/13 03:20:56;;;;;;;4.03;2.92;;;7.80;99.90;;;;;;8265184;28;20025;-80
2022/09/13 03:25:14;;;;;;;4.30;2.95;;;7.80;99.90;;;;;;8315018;23;20092;-78
2022/09/13 03:29:54;;;;;;;6.53;2.90;;;7.80;99.90;;;;;;8311629;28;20057;-78
2022/09/13 03:34:18;;;;;;;4.18;3.30;;;7.80;99.90;;;;;;8199846;28;20053;-78
2022/09/13 03:38:36;;;;;;;4.68;3.38;;;7.90;99.90;;;;;;8305209;28;20061;-78
2022/09/13 03:42:44;;;;;;;3.88;2.85;;;7.80;99.90;;;;;;8302592;28;20496;-78
2022/09/13 03:46:55;;;;;;;3.75;2.95;;;7.70;99.90;;;;;;8316509;28;20076;-78
2022/09/13 03:50:55;;;;;;;4.57;3.08;;;7.90;99.90;;;;;;8302383;28;20026;-77
2022/09/13 03:54:56;;;;;;;4.85;2.78;;;7.80;99.90;;;;;;8311815;28;20048;-78
2022/09/13 03:58:57;;;;;;;5.65;3.60;;;7.80;99.90;;;;;;8315100;28;20045;-78
2022/09/13 04:02:58;;;;;;;9.27;4.53;;;7.70;99.90;;;;;;8289983;28;20569;-79
2022/09/13 04:07:02;;;;;;;6.97;4.13;;;7.80;99.90;;;;;;8292154;28;20093;-79
2022/09/13 04:11:02;;;;;;;4.70;3.85;;;7.80;99.90;;;;;;8264422;28;20038;-79
2022/09/13 04:15:04;;;;;;;8.50;4.28;;;7.70;99.90;;;;;;8268788;28;20068;-78
2022/09/13 04:19:04;;;;;;;7.45;4.30;;;7.60;99.90;;;;;;8280178;28;20018;-79
2022/09/13 04:23:05;;;;;;;6.00;4.28;;;7.60;99.90;;;;;;8306264;28;20519;-79
2022/09/13 04:27:06;;;;;;;7.05;5.32;;;7.50;99.90;;;;;;8310127;28;20049;-79
2022/09/13 04:31:06;;;;;;;6.88;3.80;;;7.80;99.90;;;;;;8282147;28;20025;-78
2022/09/13 04:35:08;;;;;;;5.07;3.53;;;8.00;99.90;;;;;;8300476;28;20018;-78
2022/09/13 04:39:08;;;;;;;3.55;3.00;;;8.00;99.90;;;;;;8305914;28;20416;-79
2022/09/13 04:43:09;;;;;;;5.10;3.20;;;8.10;99.90;;;;;;8283905;28;20026;-79
2022/09/13 04:47:09;;;;;;;4.20;3.38;;;8.00;99.90;;;;;;8295911;28;20133;-79
2022/09/13 04:51:10;;;;;;;5.20;3.17;;;7.90;99.90;;;;;;8288120;28;20030;-78
2022/09/13 04:55:11;;;;;;;3.58;3.20;;;7.70;99.90;;;;;;8309801;28;20149;-78
2022/09/13 04:59:13;;;;;;;5.85;3.75;;;7.70;99.90;;;;;;8307847;28;20057;-79
2022/09/13 05:03:13;;;;;;;3.58;3.17;;;7.70;99.90;;;;;;8293433;28;20430;-79
2022/09/13 05:07:13;;;;;;;7.95;3.58;;;7.60;99.90;;;;;;8304388;28;20029;-79
2022/09/13 05:11:14;;;;;;;6.90;3.90;;;7.70;99.90;;;;;;8309449;28;21555;-78
2022/09/13 05:15:15;;;;;;;5.47;3.55;;;7.70;99.90;;;;;;8309241;28;20029;-79
2022/09/13 05:19:16;;;;;;;3.83;2.90;;;7.70;99.90;;;;;;8291766;28;20029;-79
2022/09/13 05:23:16;;;;;;;5.13;3.20;;;7.70;99.90;;;;;;8295541;28;20030;-79
2022/09/13 05:27:17;;;;;;;9.57;6.88;;;7.70;99.90;;;;;;8275076;28;20029;-79
2022/09/13 05:31:26;;;;;;;10.15;6.35;;;7.90;99.90;;;;;;8289009;28;20113;-78
2022/09/13 05:35:27;;;;;;;14.00;6.20;;;8.10;99.90;;;;;;8309291;28;20390;-79
2022/09/13 05:39:28;;;;;;;11.98;6.65;;;8.20;99.90;;;;;;8292114;28;20053;-78
2022/09/13 05:43:31;;;;;;;18.48;9.73;;;8.30;99.90;;;;;;8308233;28;20025;-78
2022/09/13 05:47:31;;;;;;;18.20;10.80;;;8.40;99.90;;;;;;8308969;28;20021;-79
2022/09/13 05:51:32;;;;;;;17.92;8.38;;;8.40;99.90;;;;;;8307190;28;20013;-79
2022/09/13 05:55:33;;;;;;;14.23;8.07;;;8.60;99.90;;;;;;8301847;28;20492;-79
2022/09/13 05:59:33;;;;;;;9.20;5.70;;;8.80;99.90;;;;;;8286206;28;20030;-78
2022/09/13 06:03:35;;;;;;;7.30;4.70;;;9.00;99.90;;;;;;8315407;28;20063;-79
2022/09/13 06:07:38;;;;;;;5.45;3.80;;;9.40;99.90;;;;;;8307532;28;20037;-78
2022/09/13 06:11:39;;;;;;;8.25;3.80;;;9.70;99.90;;;;;;8308066;28;20029;-79
2022/09/13 06:15:39;;;;;;;6.80;3.30;;;10.00;99.90;;;;;;8304075;28;20030;-79
2022/09/13 06:19:40;;;;;;;3.47;2.90;;;10.10;99.90;;;;;;8307604;28;20376;-79
2022/09/13 06:23:40;;;;;;;3.63;3.15;;;10.10;99.90;;;;;;8307450;28;20045;-79
2022/09/13 06:27:41;;;;;;;3.97;2.90;;;10.50;99.90;;;;;;8289159;28;20444;-79
2022/09/13 06:31:43;;;;;;;6.78;3.00;;;10.60;99.90;;;;;;8307643;28;21403;-79
2022/09/13 06:35:44;;;;;;;4.18;2.85;;;10.90;99.90;;;;;;8307597;28;20075;-79
2022/09/13 06:39:45;;;;;;;4.00;3.30;;;11.10;99.90;;;;;;8308116;28;20025;-79
2022/09/13 06:43:47;;;;;;;5.45;3.75;;;11.40;99.90;;;;;;8307036;28;20072;-79
2022/09/13 06:47:47;;;;;;;6.78;4.10;;;11.70;99.90;;;;;;8303992;28;20021;-80
2022/09/13 06:51:48;;;;;;;8.75;4.78;;;11.90;99.90;;;;;;8272914;28;20029;-79
2022/09/13 06:55:48;;;;;;;8.75;3.60;;;12.00;99.90;;;;;;8279325;28;20022;-79
2022/09/13 06:59:49;;;;;;;4.00;3.35;;;12.10;99.90;;;;;;8270863;28;20029;-80
2022/09/13 07:04:02;;;;;;;3.70;3.38;;;12.30;99.90;;;;;;8312029;28;20499;-79
2022/09/13 07:08:03;;;;;;;3.80;3.40;;;12.40;99.90;;;;;;8306850;28;20097;-79
2022/09/13 07:12:04;;;;;;;2.90;2.60;;;12.50;99.90;;;;;;8263029;28;20026;-79
2022/09/13 07:16:10;;;;;;;4.13;3.05;;;12.80;99.90;;;;;;8298973;28;20068;-79
2022/09/13 07:20:11;;;;;;;2.63;2.42;;;13.30;99.90;;;;;;8299979;28;20052;-79
2022/09/13 07:24:11;;;;;;;4.38;2.58;;;13.40;99.90;;;;;;8304563;28;20495;-79
2022/09/13 07:28:12;;;;;;;4.18;2.95;;;13.60;99.90;;;;;;8298593;28;20036;-79
2022/09/13 07:32:13;;;;;;;4.45;3.30;;;14.10;99.90;;;;;;8301802;28;20022;-79
2022/09/13 07:36:14;;;;;;;4.70;2.65;;;14.30;99.90;;;;;;8306032;28;20021;-79
2022/09/13 07:40:14;;;;;;;3.08;2.40;;;14.40;99.90;;;;;;8280987;28;20026;-79
2022/09/13 07:44:15;;;;;;;4.38;2.40;;;14.60;99.90;;;;;;8290555;28;20068;-79
2022/09/13 07:48:15;;;;;;;2.40;2.20;;;14.80;99.90;;;;;;8290302;28;20033;-79
2022/09/13 07:52:16;;;;;;;2.45;2.25;;;15.00;99.90;;;;;;8307650;28;20056;-80
2022/09/13 07:56:22;;;;;;;2.13;1.92;;;15.80;99.90;;;;;;8311644;28;20041;-80
2022/09/13 08:00:24;;;;;;;4.10;2.00;;;16.20;99.90;;;;;;8312914;28;20088;-80
2022/09/13 08:04:25;;;;;;;3.25;1.90;;;16.60;99.90;;;;;;8291759;28;20170;-79
2022/09/13 08:08:25;;;;;;;2.92;2.08;;;17.40;99.90;;;;;;8301247;28;20030;-80
2022/09/13 08:12:26;;;;;;;5.63;1.70;;;17.50;99.90;;;;;;8301279;28;20530;-77
2022/09/13 08:16:28;;;;;;;2.10;1.40;;;17.80;99.90;;;;;;8302588;28;20018;-78
2022/09/13 08:20:29;;;;;;;2.60;1.30;;;18.30;99.90;;;;;;8274789;28;20036;-79
2022/09/13 08:24:29;;;;;;;1.73;1.25;;;18.60;99.90;;;;;;8282963;28;20345;-77
2022/09/13 08:28:31;;;;;;;1.75;1.40;;;18.90;99.90;;;;;;8309090;28;20060;-78
2022/09/13 08:32:31;;;;;;;2.55;1.38;;;19.20;99.90;;;;;;8312154;28;20032;-78
2022/09/13 08:36:32;;;;;;;2.17;1.20;;;19.20;99.90;;;;;;8310405;28;20029;-78
2022/09/13 08:40:50;;;;;;;2.75;1.30;;;19.60;99.90;;;;;;8312159;28;20025;-78
2022/09/13 08:44:55;;;;;;;2.05;1.40;;;20.20;99.90;;;;;;8308021;28;20030;-79
2022/09/13 08:49:00;;;;;;;2.40;1.52;;;20.70;99.90;;;;;;8310204;28;20053;-78
2022/09/13 08:53:47;;;;;;;2.15;1.20;;;21.10;99.90;;;;;;8303871;28;20118;-78
2022/09/13 08:57:58;;;;;;;2.60;1.40;;;22.00;99.90;;;;;;8226633;28;20058;-78
2022/09/13 09:02:33;;;;;;;1.27;1.08;;;22.20;99.90;;;;;;8268384;28;20459;-79
2022/09/13 09:06:35;;;;;;;6.25;2.13;;;22.50;99.90;;;;;;8291549;28;20091;-79
2022/09/13 09:10:43;;;;;;;1.40;1.25;;;22.70;99.90;;;;;;8308491;28;20030;-79
2022/09/13 09:14:57;;;;;;;1.17;1.08;;;23.20;99.90;;;;;;8307070;28;20033;-79
2022/09/13 09:19:22;;;;;;;1.40;1.20;;;23.00;99.90;;;;;;8306904;28;20021;-79
2022/09/13 09:27:26;;;;;;;1.95;1.35;;;23.70;99.90;;;;;;8341337;28;20048;-82
2022/09/13 09:32:02;;;;;;;3.70;1.40;;;23.70;99.90;;;;;;8327094;28;20406;-82
2022/09/13 09:36:12;;;;;;;1.38;1.13;;;24.20;99.90;;;;;;8310735;28;20080;-82
2022/09/13 09:40:15;;;;;;;1.77;1.30;;;24.80;99.90;;;;;;8319207;28;20100;-82
2022/09/13 09:44:21;;;;;;;2.15;1.30;;;25.10;99.90;;;;;;8308783;28;20037;-82
2022/09/13 09:48:28;;;;;;;2.35;1.20;;;25.00;99.90;;;;;;8308678;28;20021;-82
2022/09/13 09:52:55;;;;;;;2.53;1.23;;;25.20;99.90;;;;;;8288042;28;20021;-82
2022/09/13 09:56:56;;;;;;;4.32;1.20;;;25.30;99.90;;;;;;8288087;28;20029;-83
2022/09/13 10:00:58;;;;;;;1.92;1.08;;;25.60;99.90;;;;;;8293378;28;20026;-82
2022/09/13 10:05:01;;;;;;;1.10;1.00;;;25.90;99.90;;;;;;8310550;28;20137;-81
2022/09/13 10:09:04;;;;;;;2.47;1.10;;;26.30;99.90;;;;;;8301313;28;20123;-82
2022/09/13 10:13:11;;;;;;;3.03;1.40;;;26.20;99.90;;;;;;8309352;28;20415;-82
2022/09/13 10:17:25;;;;;;;1.48;1.00;;;26.20;99.90;;;;;;8287966;28;20018;-82
2022/09/13 10:21:26;;;;;;;2.50;0.98;;;27.40;99.90;;;;;;8288320;28;20166;-82
2022/09/13 10:25:26;;;;;;;1.48;1.10;;;28.10;99.90;;;;;;8305109;28;20116;-82
2022/09/13 10:29:27;;;;;;;1.65;1.10;;;27.70;99.90;;;;;;8307803;28;20030;-82
2022/09/13 10:33:57;;;;;;;1.17;0.88;;;27.90;99.90;;;;;;8297549;28;20022;-82
2022/09/13 10:37:57;;;;;;;1.33;0.93;;;28.90;99.90;;;;;;8271012;28;20092;-82
2022/09/13 10:42:04;;;;;;;1.70;1.00;;;30.20;99.90;;;;;;8277102;28;20374;-83
2022/09/13 10:46:11;;;;;;;4.72;1.30;;;30.80;99.20;;;;;;8302373;28;20026;-82
2022/09/13 10:50:18;;;;;;;1.40;0.82;;;30.90;98.50;;;;;;8315718;28;20518;-82
2022/09/13 10:54:22;;;;;;;1.70;0.90;;;30.50;98.90;;;;;;8310285;28;20045;-82
2022/09/13 10:58:23;;;;;;;2.20;1.13;;;30.30;99.30;;;;;;8289988;28;20024;-82
2022/09/13 11:02:58;;;;;;;1.17;0.82;;;29.90;97.70;;;;;;8290215;28;20025;-82
2022/09/13 11:07:23;;;;;;;1.38;0.90;;;30.20;97.00;;;;;;8287006;28;20056;-82
2022/09/13 11:12:14;;;;;;;1.20;0.80;;;30.30;96.60;;;;;;8302990;28;20025;-83
2022/09/13 11:16:24;;;;;;;1.13;1.02;;;31.80;94.20;;;;;;8279951;28;20500;-83
2022/09/13 11:20:32;;;;;;;0.70;0.70;;;32.30;91.70;;;;;;8316559;28;20100;-83
2022/09/13 11:25:16;;;;;;;2.45;0.80;;;31.30;92.60;;;;;;8297142;28;20029;-83
2022/09/13 11:29:51;;;;;;;2.42;0.85;;;30.80;95.80;;;;;;8233511;28;20037;-82
2022/09/13 11:34:42;;;;;;;1.30;0.82;;;30.40;92.80;;;;;;8312816;28;20044;-83
2022/09/13 11:38:54;;;;;;;0.75;0.75;;;30.50;91.90;;;;;;8254971;28;20034;-83
2022/09/13 11:43:01;;;;;;;1.50;0.93;;;31.30;91.90;;;;;;8298190;28;20026;-83
2022/09/13 11:47:22;;;;;;;2.08;0.80;;;31.70;91.30;;;;;;8304510;28;20049;-83
2022/09/13 11:51:29;;;;;;;1.73;0.90;;;32.40;88.60;;;;;;8309141;28;20623;-83
2022/09/13 11:55:40;;;;;;;2.15;0.90;;;32.10;91.70;;;;;;8310206;28;20024;-83
2022/09/13 11:59:46;;;;;;;1.45;1.00;;;32.20;88.20;;;;;;8289685;28;20030;-83
2022/09/13 12:04:12;;;;;;;1.45;0.80;;;33.20;85.20;;;;;;8318273;28;20415;-82
2022/09/13 12:08:33;;;;;;;0.70;0.70;;;32.00;86.60;;;;;;8312260;28;20595;-83
2022/09/13 12:12:35;;;;;;;1.58;0.77;;;31.70;81.90;;;;;;8295431;28;20029;-83
2022/09/13 12:16:42;;;;;;;1.13;0.60;;;33.00;83.50;;;;;;8318691;28;20032;-83
2022/09/13 12:20:51;;;;;;;1.20;0.90;;;34.10;76.20;;;;;;8316929;28;20404;-83
2022/09/13 12:24:57;;;;;;;0.60;0.50;;;35.40;75.30;;;;;;8295700;28;20026;-83
2022/09/13 12:29:04;;;;;;;1.38;0.70;;;35.20;62.60;;;;;;8312821;28;20322;-83
2022/09/13 12:33:05;;;;;;;6.95;0.90;;;33.10;69.30;;;;;;8315033;28;20507;-83
2022/09/13 12:37:43;;;;;;;1.30;0.82;;;31.30;75.40;;;;;;8298269;28;20113;-83
2022/09/13 12:42:16;;;;;;;2.15;0.98;;;30.80;85.10;;;;;;8315852;28;20028;-83
2022/09/13 12:46:44;;;;;;;2.08;0.90;;;30.90;85.00;;;;;;8318317;28;20022;-83
2022/09/13 12:50:57;;;;;;;1.85;0.85;;;31.30;80.70;;;;;;8299366;28;20018;-83
2022/09/13 12:55:20;;;;;;;1.30;0.88;;;30.50;90.10;;;;;;8315586;28;20026;-83
2022/09/13 12:59:46;;;;;;;1.33;0.80;;;32.10;76.50;;;;;;8318236;28;20018;-84
2022/09/13 13:04:08;;;;;;;0.80;0.63;;;31.60;76.80;;;;;;8280974;28;72119;-83
2022/09/13 13:08:18;;;;;;;1.88;0.98;;;30.10;83.30;;;;;;8264779;28;20015;-83
2022/09/13 13:12:32;;;;;;;2.13;0.70;;;29.30;91.10;;;;;;8263687;28;20018;-83
2022/09/13 13:16:36;;;;;;;1.58;0.70;;;29.30;90.80;;;;;;8277196;28;20134;-83
2022/09/13 13:20:52;;;;;;;1.63;0.80;;;29.30;92.70;;;;;;8266340;28;20039;-83
2022/09/13 13:24:54;;;;;;;2.25;0.80;;;29.20;91.20;;;;;;8261668;28;20029;-83
2022/09/13 13:29:11;;;;;;;1.35;0.80;;;28.90;90.90;;;;;;8275406;28;20066;-83
2022/09/13 13:33:18;;;;;;;2.65;1.10;;;28.60;91.40;;;;;;8277854;28;20049;-83
2022/09/13 13:37:18;;;;;;;5.90;1.00;;;28.40;93.50;;;;;;8273641;28;20503;-83
2022/09/13 13:41:35;;;;;;;1.05;0.85;;;27.90;94.20;;;;;;8275033;28;20030;-83
2022/09/13 13:45:36;;;;;;;1.10;0.82;;;27.80;97.90;;;;;;8278468;28;20057;-83
2022/09/13 13:49:39;;;;;;;2.25;0.93;;;28.00;92.90;;;;;;8272987;28;20033;-83
2022/09/13 13:53:44;;;;;;;2.80;0.88;;;28.20;95.80;;;;;;8272850;28;20029;-83
2022/09/13 13:58:02;;;;;;;3.85;1.10;;;27.70;96.30;;;;;;8273482;28;20023;-83
2022/09/13 14:02:05;;;;;;;1.88;0.90;;;27.30;98.30;;;;;;8270465;28;20026;-84
2022/09/13 14:06:38;;;;;;;1.77;1.02;;;26.80;95.20;;;;;;8271353;28;20038;-84
2022/09/13 14:11:09;;;;;;;1.23;0.80;;;26.50;96.20;;;;;;8278268;28;20085;-84
2022/09/13 14:15:29;;;;;;;;;;;26.60;99.90;;;;;;8258166;28;20026;-84
2022/09/13 14:19:43;;;;;;;1.88;0.95;;;26.70;98.10;;;;;;8271758;28;19932;-85
2022/09/13 14:23:43;;;;;;;3.22;1.05;;;26.80;99.90;;;;;;8270215;28;20034;-83
2022/09/13 14:27:45;;;;;;;3.30;1.30;;;26.80;99.90;;;;;;8275818;28;20026;-84
2022/09/13 14:31:54;;;;;;;1.85;1.17;;;26.90;99.90;;;;;;8273445;28;20400;-83
2022/09/13 14:36:05;;;;;;;3.28;1.08;;;27.40;99.90;;;;;;8280802;28;20118;-84
2022/09/13 14:40:05;;;;;;;4.35;0.95;;;27.50;99.90;;;;;;8275055;28;20034;-84
2022/09/13 14:44:35;;;;;;;1.52;1.02;;;27.30;99.90;;;;;;8273963;28;20065;-84
2022/09/13 14:48:55;;;;;;;4.57;1.00;;;27.10;99.90;;;;;;8260125;28;20042;-84
2022/09/13 14:52:56;;;;;;;2.45;0.90;;;27.10;99.90;;;;;;8274266;28;20137;-82
2022/09/13 14:57:00;;;;;;;1.20;1.00;;;26.60;99.90;;;;;;8272997;28;20026;-81
2022/09/13 15:01:07;;;;;;;2.10;0.95;;;26.20;99.90;;;;;;8275880;28;20439;-83
2022/09/13 15:05:13;;;;;;;2.22;1.10;;;26.10;99.90;;;;;;8262083;28;20026;-81
2022/09/13 15:09:25;;;;;;;1.80;1.08;;;26.30;99.90;;;;;;8266418;28;20046;-81
2022/09/13 15:13:26;;;;;;;5.10;1.00;;;26.60;99.90;;;;;;8266826;28;20022;-83
2022/09/13 15:17:26;;;;;;;15.20;2.58;;;27.10;99.90;;;;;;8272640;28;20538;-83
2022/09/13 15:21:27;;;;;;;2.42;1.55;;;27.00;99.90;;;;;;8269525;28;20121;-82
2022/09/13 15:25:28;;;;;;;2.03;1.10;;;27.10;99.90;;;;;;8266388;28;20030;-82
2022/09/13 15:29:33;;;;;;;1.73;1.10;;;27.00;99.90;;;;;;8268779;28;20048;-81
2022/09/13 15:33:34;;;;;;;1.95;1.30;;;26.90;99.90;;;;;;8274347;28;20026;-84
2022/09/13 15:37:36;;;;;;;1.70;1.30;;;26.40;99.90;;;;;;8270780;28;20104;-83
2022/09/13 15:41:57;;;;;;;2.53;1.23;;;26.50;99.90;;;;;;8265466;28;20459;-83
2022/09/13 15:46:00;;;;;;;2.45;1.30;;;26.40;99.90;;;;;;8264990;28;20031;-83
2022/09/13 15:50:00;;;;;;;5.63;1.30;;;26.30;99.90;;;;;;8265857;28;20424;-83
2022/09/13 15:54:01;;;;;;;3.38;1.10;;;25.90;99.90;;;;;;8266889;28;20082;-83
2022/09/13 15:58:01;;;;;;;1.95;1.10;;;25.50;99.90;;;;;;8265977;28;20657;-83
2022/09/13 16:02:19;;;;;;;1.83;1.20;;;25.00;99.90;;;;;;8265795;28;20121;-83
2022/09/13 16:06:20;;;;;;;1.83;1.20;;;24.60;99.90;;;;;;8262057;28;20045;-83
2022/09/13 16:10:21;;;;;;;1.08;0.98;;;24.60;99.90;;;;;;8267207;28;20092;-83
2022/09/13 16:14:22;;;;;;;4.65;1.13;;;24.60;99.90;;;;;;8270902;28;20485;-83
2022/09/13 16:18:23;;;;;;;2.35;1.20;;;24.60;99.90;;;;;;8265801;28;20019;-83
2022/09/13 16:22:23;;;;;;;1.20;1.10;;;24.70;99.90;;;;;;8261050;28;20018;-83
2022/09/13 16:26:24;;;;;;;1.95;1.30;;;24.70;99.90;;;;;;8292490;22;20494;-93
2022/09/13 16:30:26;;;;;;;1.83;1.38;;;24.60;99.90;;;;;;8315838;28;20028;-93
2022/09/13 16:34:27;;;;;;;2.88;1.58;;;24.50;99.90;;;;;;8321719;28;20018;-93
2022/09/13 16:38:27;;;;;;;1.75;1.48;;;24.40;99.90;;;;;;8321391;28;20018;-93
2022/09/13 16:42:28;;;;;;;4.63;1.92;;;24.10;99.90;;;;;;8304221;28;20025;-92
2022/09/13 16:46:29;;;;;;;5.68;1.83;;;23.70;99.90;;;;;;8326161;28;20038;-92
2022/09/13 16:50:30;;;;;;;3.67;1.55;;;23.30;99.90;;;;;;8304084;28;20491;-93
2022/09/13 16:54:33;;;;;;;8.90;2.17;;;23.20;99.90;;;;;;8311855;28;20025;-93
2022/09/13 16:58:39;;;;;;;5.47;1.80;;;23.00;99.90;;;;;;8318746;28;20095;-93
2022/09/13 17:02:39;;;;;;;6.03;1.60;;;22.60;99.90;;;;;;8314187;28;20029;-92
2022/09/13 17:06:40;;;;;;;3.33;1.50;;;22.00;99.90;;;;;;8308735;28;20030;-93
2022/09/13 17:10:40;;;;;;;1.90;1.70;;;21.70;99.90;;;;;;8299104;28;20038;-92
2022/09/13 17:14:44;;;;;;;3.42;1.55;;;21.80;99.90;;;;;;8306308;28;20018;-92
2022/09/13 17:18:44;;;;;;;2.88;1.70;;;21.50;99.90;;;;;;8312780;28;20026;-92
2022/09/13 17:22:45;;;;;;;4.15;1.75;;;21.10;99.90;;;;;;8306196;28;20510;-92
2022/09/13 17:26:45;;;;;;;4.00;1.83;;;20.90;99.90;;;;;;8305539;28;20492;-92
2022/09/13 17:30:46;;;;;;;3.55;1.63;;;20.80;99.90;;;;;;8294208;28;20022;-92
2022/09/13 17:34:46;;;;;;;3.42;1.60;;;20.60;99.90;;;;;;8307582;28;20571;-93
2022/09/13 17:38:48;;;;;;;3.05;1.63;;;20.20;99.90;;;;;;8311604;28;20018;-93
2022/09/13 17:42:49;;;;;;;3.35;1.70;;;19.90;99.90;;;;;;8297779;28;20029;-92
2022/09/13 17:46:49;;;;;;;4.63;1.88;;;19.70;99.90;;;;;;8308218;28;20040;-92
2022/09/13 17:50:50;;;;;;;2.60;1.80;;;19.50;99.90;;;;;;8296156;28;20029;-92
2022/09/13 17:54:50;;;;;;;3.20;1.77;;;19.60;99.90;;;;;;8306637;28;20029;-92
2022/09/13 17:58:51;;;;;;;4.38;1.83;;;19.40;99.90;;;;;;8313814;28;20387;-92
2022/09/13 18:02:52;;;;;;;2.80;1.75;;;19.40;99.90;;;;;;8312083;28;20029;-92
2022/09/13 18:06:53;;;;;;;4.30;2.10;;;19.20;99.90;;;;;;8300872;28;20049;-92
2022/09/13 18:10:53;;;;;;;3.95;2.05;;;19.00;99.90;;;;;;8305006;28;20028;-92
2022/09/13 18:14:54;;;;;;;4.32;2.03;;;19.20;99.90;;;;;;8309988;28;20021;-93
2022/09/13 18:18:55;;;;;;;3.33;2.17;;;19.00;99.90;;;;;;8309208;28;20020;-92
2022/09/13 18:22:56;;;;;;;5.07;2.28;;;18.60;99.90;;;;;;8314696;28;20030;-93
2022/09/13 18:26:56;;;;;;;4.78;2.03;;;18.50;99.90;;;;;;8305772;28;20052;-92
2022/09/13 18:30:59;;;;;;;3.17;2.20;;;18.40;99.90;;;;;;8299809;28;20030;-93
2022/09/13 18:34:59;;;;;;;3.70;2.30;;;18.20;99.90;;;;;;8313746;28;20068;-92
2022/09/13 18:39:03;;;;;;;4.10;2.22;;;18.10;99.90;;;;;;8311968;28;20057;-93
2022/09/13 18:43:03;;;;;;;4.22;2.72;;;18.30;99.90;;;;;;8302673;28;20036;-93
2022/09/13 18:47:04;;;;;;;4.75;3.50;;;18.30;99.90;;;;;;8304080;28;20026;-92
2022/09/13 18:51:08;;;;;;;5.28;3.00;;;18.10;99.90;;;;;;8298348;28;20090;-92
2022/09/13 18:55:08;;;;;;;10.80;3.05;;;17.70;99.90;;;;;;8314105;28;20021;-93
2022/09/13 18:59:09;;;;;;;4.93;2.75;;;17.60;99.90;;;;;;8308183;28;20508;-92
2022/09/13 19:03:10;;;;;;;7.53;3.78;;;17.80;99.90;;;;;;8301438;28;20041;-92
2022/09/13 19:07:10;;;;;;;5.90;2.67;;;17.60;99.90;;;;;;8317922;28;20036;-92
2022/09/13 19:11:11;;;;;;;3.13;2.55;;;17.30;99.90;;;;;;8307633;28;20539;-93
2022/09/13 19:15:13;;;;;;;6.72;2.70;;;17.20;99.90;;;;;;8311602;28;20557;-92
2022/09/13 19:19:14;;;;;;;8.23;2.78;;;17.00;99.90;;;;;;8304370;28;20024;-92
2022/09/13 19:23:15;;;;;;;5.45;3.15;;;17.00;99.90;;;;;;8307684;28;20029;-92
2022/09/13 19:27:16;;;;;;;5.70;3.10;;;17.10;99.90;;;;;;8297079;28;20139;-92
2022/09/13 19:31:18;;;;;;;3.75;2.55;;;17.20;99.90;;;;;;8301945;28;20125;-92
2022/09/13 19:35:19;;;;;;;6.93;3.55;;;17.20;99.90;;;;;;8309309;28;20032;-92
2022/09/13 19:39:19;;;;;;;4.82;3.13;;;17.10;99.90;;;;;;8302353;28;20388;-92
2022/09/13 19:43:20;;;;;;;4.57;2.95;;;17.10;99.90;;;;;;8299027;28;20028;-92
2022/09/13 19:47:21;;;;;;;6.38;3.03;;;17.10;99.90;;;;;;8305992;28;20499;-93
2022/09/13 19:51:27;;;;;;;4.22;2.75;;;16.90;99.90;;;;;;8304158;28;20026;-92
2022/09/13 19:55:29;;;;;;;7.15;2.88;;;17.00;99.90;;;;;;8302450;28;20049;-92
2022/09/13 19:59:33;;;;;;;4.07;2.85;;;17.00;99.90;;;;;;8308984;28;20029;-92
2022/09/13 20:03:33;;;;;;;5.18;3.38;;;17.00;99.90;;;;;;8297450;28;20030;-92
2022/09/13 20:07:34;;;;;;;3.13;2.70;;;17.10;99.90;;;;;;8304996;28;20299;-92
2022/09/13 20:11:37;;;;;;;4.05;2.50;;;17.30;99.90;;;;;;8310907;28;20080;-92
2022/09/13 20:15:37;;;;;;;4.75;3.03;;;17.30;99.90;;;;;;8309619;28;20041;-92
2022/09/13 20:19:38;;;;;;;6.05;2.90;;;17.10;99.90;;;;;;8306527;28;20040;-93
2022/09/13 20:23:40;;;;;;;3.25;2.92;;;17.20;99.90;;;;;;8308918;28;20037;-92
2022/09/13 20:27:41;;;;;;;4.15;2.60;;;17.10;99.90;;;;;;8307105;28;20038;-92
2022/09/13 20:31:41;;;;;;;4.90;3.22;;;17.00;99.90;;;;;;8313278;28;20471;-92
2022/09/13 20:35:42;;;;;;;3.28;2.97;;;16.90;99.90;;;;;;8312619;28;20030;-93
2022/09/13 20:39:43;;;;;;;3.17;2.88;;;17.10;99.90;;;;;;8310865;28;20471;-92
2022/09/13 20:43:44;;;;;;;4.00;3.53;;;17.40;99.90;;;;;;8304467;28;21361;-92
2022/09/13 20:47:45;;;;;;;6.53;4.32;;;17.60;99.90;;;;;;8304598;28;20026;-92
2022/09/13 20:51:46;;;;;;;12.60;4.65;;;17.50;99.90;;;;;;8316804;28;20033;-92
2022/09/13 20:55:46;;;;;;;6.47;3.05;;;17.50;99.90;;;;;;8324069;28;20021;-91
2022/09/13 20:59:47;;;;;;;4.85;3.80;;;17.70;99.90;;;;;;8306397;23;20047;-81
2022/09/13 21:03:50;;;;;;;9.20;3.60;;;17.40;99.90;;;;;;8181522;28;20027;-80
2022/09/13 21:12:10;;;;;;;6.38;3.80;;;16.90;99.90;;;;;;8207967;28;20226;-82
2022/09/13 21:16:23;;;;;;;8.75;4.13;;;16.80;99.90;;;;;;8213053;28;20026;-81
2022/09/13 21:20:23;;;;;;;7.45;5.05;;;17.00;99.90;;;;;;8223264;28;20019;-82
2022/09/13 21:24:24;;;;;;;15.20;5.28;;;17.00;99.90;;;;;;8205677;28;20023;-81
2022/09/13 21:28:24;;;;;;;8.82;4.60;;;17.10;99.90;;;;;;8224710;28;20023;-80
2022/09/13 21:32:25;;;;;;;6.05;4.82;;;17.00;99.90;;;;;;8199050;28;20115;-82
2022/09/13 21:36:27;;;;;;;5.03;4.43;;;17.00;99.90;;;;;;8221224;28;20046;-81